Watertown Regional Airport
KATY : now visible

Airfield :











YOU CAN JOIN US ON...

 
LOGIN :

Register | Disclaimer

   EN    FR    IT 

 









Legend :    VFR   Marginal VFR   IFR   Intensive IFR   Very Intensive IFR
Visi :
Ceiling :
>= 8 km
>= 3000ft
5 to 8 km
1000 to 3000 ft
1500m to 5 km
500 to 1000 ft
800 to 1500m
200 to 500 ft
< 800m
< 200 ft
Symbols :   Thunderstorms  Fog  Heavy snow  Heavy precipitations  Wind > 20 kt







- Airport Elevation : 1749 ft
- IATA code : ATY


KATY - Watertown Regional

CURRENT METAR :
  • 210453Z AUTO 17019G27KT 10SM CLR 23/19 A2977 RMK AO2 PK WND 17029/0440 SLP066 T02280194

EXPIRED METARs :
  • 210353Z AUTO 17018G28KT 10SM CLR 23/19 A2978 RMK AO2 PK WND 16028/0349 SLP070 T02330194
  • 210253Z AUTO 16015G21KT 10SM CLR 23/19 A2977 RMK AO2 SLP071 T02330194 56008

TAF KATY
Valid from the 21 at 00:00 until the 22 at 00:00 UTC


202320Z 2100/2124 17019G27KT P6SM SCT080
FM210700 17015G29KT P6SM VCTS BKN080CB
FM211300 23016G22KT P6SM BKN022
No reported NOTAMs for that airfield.



MET'MAP, your aeronautical weather chart ! - Copyright ORBIFLY December 2007 - Disclaimer

ORBIFLY MET'MAP TEAM :

Programming & Development : Alexandra Zaïnal
Concept & Development : Baudouin d'Aumeries
Co-Development & Prog : Marc-Olivier Méhu
Technical & hardware support : Manuel Goepfert

Contact : metmap@orbifly.com




SOURCES & CREDITS :

   NOAA       Earth
Advisory